Time;durP1;ratioP1;P1;durP2;ratioP2;P2;SDS_P1;SDS_P2;PMS_P1;PMS_P2;Temp;Humidity;BMP_temperature;BMP_pressure;BME280_temperature;BME280_humidity;BME280_pressure;Samples;Min_cycle;Max_cycle;Signal;HPM_P1;HPM_P2
2023/07/13 00:01:43;;;;;;;2.7;1.6;;;;;;;18.19;100;938.5259;;;;
2023/07/13 00:04:09;;;;;;;4.6;3.1;;;;;;;18.13;100;938.5248;;;;
2023/07/13 00:06:35;;;;;;;2.7;2.5;;;;;;;18.11;100;938.3495;;;;
2023/07/13 00:09:03;;;;;;;3.9;2.4;;;;;;;18.08;100;938.3983;;;;
2023/07/13 00:11:28;;;;;;;3.2;1.8;;;;;;;18.03;100;938.4582;;;;
2023/07/13 00:13:58;;;;;;;2.6;1.8;;;;;;;17.95;100;938.3876;;;;
2023/07/13 00:16:23;;;;;;;2.8;1.7;;;;;;;17.8;100;938.3233;;;;
2023/07/13 00:18:49;;;;;;;2;1.7;;;;;;;17.72;100;938.2667;;;;
2023/07/13 00:21:14;;;;;;;2.6;1.8;;;;;;;17.66;100;938.2039;;;;
2023/07/13 00:23:40;;;;;;;2.3;1.6;;;;;;;17.72;100;938.2595;;;;
2023/07/13 00:26:05;;;;;;;2.6;1.7;;;;;;;17.74;100;938.2075;;;;
2023/07/13 00:28:32;;;;;;;3.7;1.8;;;;;;;17.85;100;938.1502;;;;
2023/07/13 00:30:57;;;;;;;4.1;1.9;;;;;;;17.93;100;938.1245;;;;
2023/07/13 00:33:25;;;;;;;2.7;1.6;;;;;;;17.82;100;938.1701;;;;
2023/07/13 00:35:50;;;;;;;3.4;1.8;;;;;;;17.73;100;938.157;;;;
2023/07/13 00:38:17;;;;;;;3.7;1.7;;;;;;;17.71;100;938.0405;;;;
2023/07/13 00:40:42;;;;;;;3.2;1.8;;;;;;;17.61;100;938.0095;;;;
2023/07/13 00:43:08;;;;;;;2.7;1.5;;;;;;;17.42;100;937.9791;;;;
2023/07/13 00:45:33;;;;;;;3.5;2;;;;;;;17.41;100;938.0288;;;;
2023/07/13 00:48:00;;;;;;;3;2;;;;;;;17.42;100;938.0475;;;;
2023/07/13 00:50:26;;;;;;;3.6;2;;;;;;;17.6;100;937.9639;;;;
2023/07/13 00:52:51;;;;;;;3.8;2.1;;;;;;;17.63;100;938.0731;;;;
2023/07/13 00:55:16;;;;;;;4.2;1.8;;;;;;;17.53;100;938.032;;;;
2023/07/13 00:57:43;;;;;;;2.9;2;;;;;;;17.65;100;938.0125;;;;
2023/07/13 01:00:08;;;;;;;2.9;2;;;;;;;17.69;100;937.9041;;;;
2023/07/13 01:02:36;;;;;;;2.2;1.8;;;;;;;17.87;100;937.8832;;;;
2023/07/13 01:05:02;;;;;;;2;1.5;;;;;;;17.94;100;937.8383;;;;
2023/07/13 01:07:31;;;;;;;2.2;1.6;;;;;;;18.09;100;937.872;;;;
2023/07/13 01:09:55;;;;;;;3.3;2;;;;;;;18.08;100;937.802;;;;
2023/07/13 01:12:20;;;;;;;1.9;1.7;;;;;;;18.05;100;937.8083;;;;
2023/07/13 01:14:46;;;;;;;2.6;1.7;;;;;;;18.15;100;937.8433;;;;
2023/07/13 01:17:10;;;;;;;2.1;1.6;;;;;;;18.15;100;937.8555;;;;
2023/07/13 01:19:38;;;;;;;1.4;1.3;;;;;;;18.06;100;937.8572;;;;
2023/07/13 01:22:01;;;;;;;2.7;1.8;;;;;;;18.01;100;937.9039;;;;
2023/07/13 01:24:28;;;;;;;1.9;1.5;;;;;;;18.02;100;937.8192;;;;
2023/07/13 01:26:53;;;;;;;3.3;1.8;;;;;;;17.88;100;937.8137;;;;
2023/07/13 01:29:22;;;;;;;2.8;1.7;;;;;;;17.95;100;937.78;;;;
2023/07/13 01:31:47;;;;;;;82.6;51.2;;;;;;;17.79;100;937.8198;;;;
2023/07/13 01:34:15;;;;;;;20.2;13;;;;;;;17.56;100;937.7263;;;;
2023/07/13 01:36:40;;;;;;;4.8;3.8;;;;;;;17.45;100;937.7863;;;;
2023/07/13 01:39:12;;;;;;;3.5;2.8;;;;;;;17.42;100;937.723;;;;
2023/07/13 01:41:37;;;;;;;4.6;3.1;;;;;;;17.62;100;937.6133;;;;
2023/07/13 01:44:05;;;;;;;2.9;2.3;;;;;;;17.75;100;937.7587;;;;
2023/07/13 01:46:34;;;;;;;2.7;2;;;;;;;17.76;100;937.7377;;;;
2023/07/13 01:48:59;;;;;;;3.6;2.1;;;;;;;17.84;100;937.7637;;;;
2023/07/13 01:51:27;;;;;;;3;1.8;;;;;;;17.9;100;937.8028;;;;
2023/07/13 01:53:52;;;;;;;3.2;2.1;;;;;;;17.93;100;937.7925;;;;
2023/07/13 01:56:17;;;;;;;2.7;1.6;;;;;;;17.9;100;937.844;;;;
2023/07/13 01:58:44;;;;;;;3.6;1.8;;;;;;;17.84;100;937.8314;;;;
2023/07/13 02:01:09;;;;;;;3.8;1.9;;;;;;;17.64;100;937.8667;;;;
2023/07/13 02:03:34;;;;;;;4.6;2;;;;;;;17.76;100;937.8237;;;;
2023/07/13 02:06:08;;;;;;;2.6;1.9;;;;;;;17.68;100;937.8672;;;;
2023/07/13 02:08:35;;;;;;;3.4;1.8;;;;;;;17.54;100;937.8506;;;;
2023/07/13 02:11:00;;;;;;;1.8;1.5;;;;;;;17.59;100;937.8287;;;;
2023/07/13 02:13:32;;;;;;;2;1.8;;;;;;;17.73;100;937.7759;;;;
2023/07/13 02:15:57;;;;;;;2.2;1.7;;;;;;;17.76;100;937.6964;;;;
2023/07/13 02:18:22;;;;;;;2.3;1.7;;;;;;;17.81;100;937.7382;;;;
2023/07/13 02:20:51;;;;;;;2.9;2;;;;;;;17.73;100;937.7438;;;;
2023/07/13 02:23:16;;;;;;;2.5;1.7;;;;;;;17.53;100;937.7742;;;;
2023/07/13 02:25:41;;;;;;;2.1;1.7;;;;;;;17.63;100;937.8308;;;;
2023/07/13 02:31:46;;;;;;;2;1.8;;;;;;;17.64;100;937.8619;;;;
2023/07/13 02:34:15;;;;;;;1.9;1.6;;;;;;;17.4;100;937.8278;;;;
2023/07/13 02:36:41;;;;;;;4.1;2.1;;;;;;;17.53;100;937.8436;;;;
2023/07/13 02:39:09;;;;;;;3.5;2.2;;;;;;;17.66;100;937.9526;;;;
2023/07/13 02:41:34;;;;;;;3.2;1.9;;;;;;;17.64;100;937.9601;;;;
2023/07/13 02:44:04;;;;;;;2.8;2;;;;;;;17.62;100;937.9573;;;;
2023/07/13 02:46:27;;;;;;;3.2;1.8;;;;;;;17.75;100;937.9593;;;;
2023/07/13 02:48:53;;;;;;;1.9;1.7;;;;;;;17.81;100;937.9525;;;;
2023/07/13 02:51:18;;;;;;;2.9;2.1;;;;;;;17.85;100;937.9964;;;;
2023/07/13 02:53:45;;;;;;;2.5;2;;;;;;;17.9;100;937.9857;;;;
2023/07/13 02:56:10;;;;;;;3.5;1.9;;;;;;;17.92;100;938.0225;;;;
2023/07/13 02:58:38;;;;;;;2.3;2;;;;;;;17.97;100;938.0513;;;;
2023/07/13 03:01:03;;;;;;;1.9;1.7;;;;;;;18.03;100;938.093;;;;
2023/07/13 03:03:30;;;;;;;4.3;2;;;;;;;17.84;100;938.0989;;;;
2023/07/13 03:05:55;;;;;;;2.4;1.5;;;;;;;17.84;100;938.032;;;;
2023/07/13 03:08:25;;;;;;;4;2;;;;;;;17.83;100;938.1635;;;;
2023/07/13 03:10:50;;;;;;;1.7;1.6;;;;;;;17.86;100;938.2008;;;;
2023/07/13 03:13:18;;;;;;;2.5;1.7;;;;;;;17.87;100;938.2184;;;;
2023/07/13 03:15:43;;;;;;;3.5;1.8;;;;;;;17.89;100;938.2156;;;;
2023/07/13 03:18:10;;;;;;;2.9;2.1;;;;;;;17.8;100;938.262;;;;
2023/07/13 03:20:35;;;;;;;2.4;1.8;;;;;;;17.78;100;938.2519;;;;
2023/07/13 03:23:00;;;;;;;3.5;1.7;;;;;;;17.75;100;938.234;;;;
2023/07/13 03:25:29;;;;;;;2.6;1.9;;;;;;;17.68;100;938.2094;;;;
2023/07/13 03:27:58;;;;;;;2.7;1.8;;;;;;;17.55;100;938.1708;;;;
2023/07/13 03:30:23;;;;;;;1.9;1.5;;;;;;;17.57;100;938.2695;;;;
2023/07/13 03:32:54;;;;;;;1.8;1.6;;;;;;;17.6;100;938.2101;;;;
2023/07/13 03:35:27;;;;;;;2.2;1.6;;;;;;;17.66;100;938.2401;;;;
2023/07/13 03:37:52;;;;;;;2.3;1.7;;;;;;;17.64;100;938.2574;;;;
2023/07/13 03:40:17;;;;;;;1.8;1.6;;;;;;;17.54;100;938.3417;;;;
2023/07/13 03:42:50;;;;;;;2.4;2.1;;;;;;;17.57;100;938.3533;;;;
2023/07/13 03:45:18;;;;;;;1.8;1.7;;;;;;;17.47;100;938.3936;;;;
2023/07/13 03:47:43;;;;;;;2.4;1.6;;;;;;;17.4;100;938.4171;;;;
2023/07/13 03:50:16;;;;;;;2.5;2;;;;;;;17.48;100;938.5231;;;;
2023/07/13 03:52:41;;;;;;;2.7;1.9;;;;;;;17.56;100;938.4905;;;;
2023/07/13 03:55:15;;;;;;;2;1.8;;;;;;;17.55;100;938.5106;;;;
2023/07/13 03:57:48;;;;;;;1.9;1.6;;;;;;;17.6;100;938.5397;;;;
2023/07/13 04:02:37;;;;;;;2;1.8;;;;;;;17.66;100;938.6187;;;;
2023/07/13 04:05:01;;;;;;;1.8;1.7;;;;;;;17.72;100;938.6573;;;;
2023/07/13 04:07:26;;;;;;;2;1.8;;;;;;;17.77;100;938.7095;;;;
2023/07/13 04:09:54;;;;;;;2.2;2;;;;;;;17.85;100;938.7859;;;;
2023/07/13 04:12:19;;;;;;;3.1;2.2;;;;;;;17.85;100;938.8108;;;;
2023/07/13 04:14:49;;;;;;;2.7;2.2;;;;;;;17.86;100;938.801;;;;
2023/07/13 04:17:20;;;;;;;2.1;1.9;;;;;;;17.84;100;938.8303;;;;
2023/07/13 04:19:49;;;;;;;2.5;1.9;;;;;;;17.81;100;938.8024;;;;
2023/07/13 04:22:14;;;;;;;2.3;2.1;;;;;;;17.86;100;938.8412;;;;
2023/07/13 04:24:41;;;;;;;2.1;1.9;;;;;;;17.89;100;938.9641;;;;
2023/07/13 04:27:06;;;;;;;3.3;1.9;;;;;;;17.94;100;938.9614;;;;
2023/07/13 04:29:32;;;;;;;2.1;1.9;;;;;;;17.93;100;938.9736;;;;
2023/07/13 04:31:57;;;;;;;2.6;2.1;;;;;;;17.94;100;938.9734;;;;
2023/07/13 04:34:26;;;;;;;2.1;1.9;;;;;;;17.98;100;939.0084;;;;
2023/07/13 04:36:52;;;;;;;2.8;1.7;;;;;;;18.01;100;939.0666;;;;
2023/07/13 04:39:20;;;;;;;1.7;1.6;;;;;;;17.96;100;939.0779;;;;
2023/07/13 04:41:51;;;;;;;3.9;2.3;;;;;;;17.9;100;939.1144;;;;
2023/07/13 04:44:16;;;;;;;2.9;2.1;;;;;;;17.74;100;939.0322;;;;
2023/07/13 04:46:43;;;;;;;8.8;4.7;;;;;;;17.63;100;939.0564;;;;
2023/07/13 04:49:08;;;;;;;11.8;6.5;;;;;;;17.66;100;939.0156;;;;
2023/07/13 04:51:35;;;;;;;62.1;29.5;;;;;;;17.78;100;938.9921;;;;
2023/07/13 04:54:00;;;;;;;36.8;21.8;;;;;;;17.88;100;938.8973;;;;
2023/07/13 04:56:28;;;;;;;14.1;9;;;;;;;17.92;100;938.9481;;;;
2023/07/13 04:58:53;;;;;;;3.7;3;;;;;;;17.95;100;938.9444;;;;
2023/07/13 05:01:22;;;;;;;3.7;2.3;;;;;;;17.91;100;938.9733;;;;
2023/07/13 05:03:52;;;;;;;2.9;2.4;;;;;;;17.99;100;939.0219;;;;
2023/07/13 05:06:17;;;;;;;5.2;3.4;;;;;;;18.11;100;939.0151;;;;
2023/07/13 05:08:45;;;;;;;3.7;3;;;;;;;18.16;100;939.0158;;;;
2023/07/13 05:11:10;;;;;;;3.8;2.7;;;;;;;18.2;100;939.0214;;;;
2023/07/13 05:13:40;;;;;;;3.8;2.4;;;;;;;18.25;100;939.0258;;;;
2023/07/13 05:16:07;;;;;;;2.7;2.2;;;;;;;18.28;100;939.0201;;;;
2023/07/13 05:18:30;;;;;;;3.7;2.2;;;;;;;18.36;100;938.9769;;;;
2023/07/13 05:20:59;;;;;;;3.3;2.2;;;;;;;18.38;100;938.9683;;;;
2023/07/13 05:23:28;;;;;;;2.1;1.9;;;;;;;18.41;100;939.0105;;;;
2023/07/13 05:25:55;;;;;;;2.6;2;;;;;;;18.42;100;939.0977;;;;
2023/07/13 05:28:24;;;;;;;2.5;2;;;;;;;18.44;100;939.0773;;;;
2023/07/13 05:30:49;;;;;;;3;2.2;;;;;;;18.54;100;939.0438;;;;
2023/07/13 05:33:16;;;;;;;2.1;1.9;;;;;;;18.66;100;939.0096;;;;
2023/07/13 05:35:41;;;;;;;2.3;2.1;;;;;;;18.77;100;939.026;;;;
2023/07/13 05:38:08;;;;;;;3;2.2;;;;;;;18.81;100;939.0323;;;;
2023/07/13 05:40:33;;;;;;;3;2.1;;;;;;;18.84;99.2168;939.0103;;;;
2023/07/13 05:43:02;;;;;;;3.2;2;;;;;;;18.84;99.12305;938.9691;;;;
2023/07/13 05:45:28;;;;;;;4.2;2.2;;;;;;;18.89;99.7041;938.9252;;;;
2023/07/13 05:47:55;;;;;;;2.1;1.9;;;;;;;18.89;98.83105;938.9534;;;;
2023/07/13 05:50:21;;;;;;;2.7;1.8;;;;;;;18.99;100;938.9772;;;;
2023/07/13 05:52:49;;;;;;;3;1.9;;;;;;;19.07;100;939.0128;;;;
2023/07/13 05:55:15;;;;;;;2.6;2.1;;;;;;;19.03;98.59375;939.0305;;;;
2023/07/13 05:57:43;;;;;;;3.7;2.6;;;;;;;19.26;98.20508;939.0396;;;;
2023/07/13 06:00:08;;;;;;;2.2;1.9;;;;;;;19.04;95.36133;939.0336;;;;
2023/07/13 06:02:36;;;;;;;2;1.7;;;;;;;19.11;96.28711;939.1571;;;;
2023/07/13 06:05:01;;;;;;;3;1.7;;;;;;;19.38;96.23926;939.1071;;;;
2023/07/13 06:07:31;;;;;;;2.2;1.6;;;;;;;19.57;93.08691;939.1484;;;;
2023/07/13 06:10:01;;;;;;;1.9;1.6;;;;;;;19.54;90.63281;939.1716;;;;
2023/07/13 06:12:26;;;;;;;2.5;1.6;;;;;;;19.65;91.7627;939.213;;;;
2023/07/13 06:14:53;;;;;;;2.8;1.7;;;;;;;19.79;91.80273;939.2023;;;;
2023/07/13 06:17:18;;;;;;;2;1.8;;;;;;;19.84;90.64746;939.2361;;;;
2023/07/13 06:19:46;;;;;;;1.6;1.3;;;;;;;20;91.07813;939.1739;;;;
2023/07/13 06:22:12;;;;;;;3.3;2;;;;;;;20.07;91.21875;939.1451;;;;
2023/07/13 06:24:42;;;;;;;3.6;1.8;;;;;;;19.99;90.85254;939.1225;;;;
2023/07/13 06:27:07;;;;;;;2.8;1.9;;;;;;;20.09;90.37109;939.2391;;;;
2023/07/13 06:29:35;;;;;;;2.9;1.9;;;;;;;20.1;89.68457;939.2551;;;;
2023/07/13 06:32:00;;;;;;;2.7;1.7;;;;;;;20.08;91.19922;939.2611;;;;
2023/07/13 06:34:25;;;;;;;3;2.2;;;;;;;20.08;91.66602;939.2086;;;;
2023/07/13 06:36:52;;;;;;;2.8;2.2;;;;;;;19.84;95.30176;939.2555;;;;
2023/07/13 06:39:17;;;;;;;2.4;2.2;;;;;;;19.97;92.21191;939.2363;;;;
2023/07/13 06:41:47;;;;;;;3.8;2.2;;;;;;;20.14;93.53125;939.1901;;;;
2023/07/13 06:44:12;;;;;;;3.3;2.3;;;;;;;20.73;95.07129;939.2012;;;;
2023/07/13 06:46:40;;;;;;;1.9;1.8;;;;;;;22.41;87.18359;939.2017;;;;
2023/07/13 06:49:05;;;;;;;3.3;2.1;;;;;;;23.99;76.79395;939.2161;;;;
2023/07/13 06:51:32;;;;;;;1.5;1.4;;;;;;;26.84;64.27441;939.1536;;;;
2023/07/13 06:53:57;;;;;;;1.4;1.3;;;;;;;26.19;65.96973;939.1418;;;;
2023/07/13 06:56:23;;;;;;;1.7;1.4;;;;;;;26.45;63.85254;939.165;;;;
2023/07/13 06:58:48;;;;;;;2.4;1.6;;;;;;;26.43;64.72656;939.1828;;;;
2023/07/13 07:01:13;;;;;;;3.5;1.9;;;;;;;26.44;67.65039;939.2283;;;;
2023/07/13 07:03:42;;;;;;;3.2;1.9;;;;;;;25.62;66.72461;939.2162;;;;
2023/07/13 07:06:08;;;;;;;3.2;1.5;;;;;;;27.02;63.63672;939.2531;;;;
2023/07/13 07:08:35;;;;;;;1.6;1.3;;;;;;;26.79;62.36133;939.2358;;;;
2023/07/13 07:11:00;;;;;;;2.6;1.5;;;;;;;26.08;60.53516;939.26;;;;
2023/07/13 07:13:30;;;;;;;1.6;1.4;;;;;;;28.08;60.75879;939.3297;;;;
2023/07/13 07:15:53;;;;;;;1.6;1.5;;;;;;;29.78;50.79102;939.2431;;;;
2023/07/13 07:18:21;;;;;;;1.8;1.5;;;;;;;28.81;54.0498;939.2943;;;;
2023/07/13 07:20:46;;;;;;;2.1;1.5;;;;;;;27.14;61.09375;939.3064;;;;
2023/07/13 07:23:14;;;;;;;1.9;1.5;;;;;;;26.04;60.88477;939.3013;;;;
2023/07/13 07:25:41;;;;;;;2.9;1.6;;;;;;;25.34;65.44336;939.2936;;;;
2023/07/13 07:28:03;;;;;;;2.3;1.6;;;;;;;24.93;66.27832;939.387;;;;
2023/07/13 07:30:31;;;;;;;4.5;2.2;;;;;;;24.12;66.48828;939.395;;;;
2023/07/13 07:32:56;;;;;;;4.2;1.9;;;;;;;23.18;72.22559;939.4456;;;;
2023/07/13 07:35:26;;;;;;;2.8;1.9;;;;;;;23.51;70.29004;939.4758;;;;
2023/07/13 07:37:55;;;;;;;2.9;2;;;;;;;22.85;72.98145;939.5217;;;;
2023/07/13 07:40:27;;;;;;;2.4;2.1;;;;;;;22.15;74.99902;939.4267;;;;
2023/07/13 07:42:56;;;;;;;2.2;2;;;;;;;22.32;75.28613;939.4733;;;;
2023/07/13 07:45:26;;;;;;;3;2.3;;;;;;;22.21;76.19336;939.5368;;;;
2023/07/13 07:47:51;;;;;;;3.8;2.2;;;;;;;22.16;76.43164;939.5278;;;;
2023/07/13 07:50:19;;;;;;;2.8;2.2;;;;;;;21.3;78.90625;939.4869;;;;
2023/07/13 07:52:44;;;;;;;3.7;2.2;;;;;;;22.18;79.20313;939.5311;;;;
2023/07/13 07:55:13;;;;;;;2.2;1.9;;;;;;;23.73;71.77148;939.6877;;;;
2023/07/13 07:57:41;;;;;;;3.2;2.1;;;;;;;24.29;68.79883;939.6433;;;;
2023/07/13 08:00:06;;;;;;;3.8;2.2;;;;;;;24.39;67.16602;939.6091;;;;
2023/07/13 08:02:33;;;;;;;4.6;2.4;;;;;;;22.89;74.03418;939.6467;;;;
2023/07/13 08:04:58;;;;;;;3;2.7;;;;;;;22.37;75.84668;939.6093;;;;
2023/07/13 08:07:26;;;;;;;3.4;2.4;;;;;;;22.52;74.09961;939.6486;;;;
2023/07/13 08:09:52;;;;;;;3.3;2.7;;;;;;;22.39;76.30859;939.6752;;;;
2023/07/13 08:12:18;;;;;;;6.3;2.7;;;;;;;22.25;76.55273;939.6331;;;;
2023/07/13 08:14:43;;;;;;;4.6;2.3;;;;;;;22.33;75.01855;939.6735;;;;
2023/07/13 08:17:09;;;;;;;4.1;2.1;;;;;;;22.28;70.84766;939.6805;;;;
2023/07/13 08:19:36;;;;;;;2.7;1.9;;;;;;;22.07;71.86719;939.6364;;;;
2023/07/13 08:22:01;;;;;;;3.2;2.2;;;;;;;21.71;74.37598;939.5999;;;;
2023/07/13 08:24:28;;;;;;;2.9;2;;;;;;;21.25;74.56934;939.6317;;;;
2023/07/13 08:26:53;;;;;;;3;2.1;;;;;;;21.47;74.60449;939.6361;;;;
2023/07/13 08:29:21;;;;;;;5.7;1.9;;;;;;;21.15;73.21777;939.712;;;;
2023/07/13 08:31:54;;;;;;;3.7;2.5;;;;;;;20.68;75.66406;939.7132;;;;
2023/07/13 08:34:23;;;;;;;5.5;2.3;;;;;;;20.65;75.69238;939.723;;;;
2023/07/13 08:36:53;;;;;;;4.2;2.4;;;;;;;20.71;76.21777;939.76;;;;
2023/07/13 08:39:18;;;;;;;5.5;3.2;;;;;;;20.72;76.05566;939.8051;;;;
2023/07/13 08:41:43;;;;;;;5.3;2.6;;;;;;;20.66;77.91406;939.8497;;;;
2023/07/13 08:44:09;;;;;;;2.1;1.9;;;;;;;20.41;77.5791;939.9431;;;;
2023/07/13 08:46:34;;;;;;;4.5;2.3;;;;;;;20.22;78.68848;940.0242;;;;
2023/07/13 08:48:59;;;;;;;3.6;2.3;;;;;;;20.1;78.48145;940.1339;;;;
2023/07/13 08:51:29;;;;;;;2.9;2;;;;;;;19.7;80.49707;940.2452;;;;
2023/07/13 08:53:53;;;;;;;4.1;2.5;;;;;;;19.28;81.93652;940.381;;;;
2023/07/13 08:56:19;;;;;;;6;2.9;;;;;;;19.14;82.62012;940.3981;;;;
2023/07/13 08:58:49;;;;;;;4;2.7;;;;;;;18.63;84.53711;940.3307;;;;
2023/07/13 09:01:14;;;;;;;6.8;2.7;;;;;;;18.25;87.24219;940.342;;;;
2023/07/13 09:03:44;;;;;;;3.9;2.4;;;;;;;17.99;89.69922;940.2054;;;;
2023/07/13 09:06:09;;;;;;;3.8;2.5;;;;;;;17.87;89.35938;940.1091;;;;
2023/07/13 09:08:34;;;;;;;3.1;2.5;;;;;;;17.72;91.48926;940.2697;;;;
2023/07/13 09:11:01;;;;;;;6.8;2.8;;;;;;;17.5;93.625;940.348;;;;
2023/07/13 09:13:26;;;;;;;5.1;2.7;;;;;;;17.35;94.46191;940.2797;;;;
2023/07/13 09:15:58;;;;;;;3.6;2.8;;;;;;;17.41;95.00977;940.3328;;;;
2023/07/13 09:18:26;;;;;;;3.9;2.7;;;;;;;17.54;93.79492;940.4417;;;;
2023/07/13 09:20:51;;;;;;;4.6;2.5;;;;;;;17.53;93.74707;940.5079;;;;
2023/07/13 09:23:17;;;;;;;4.3;2.3;;;;;;;17.56;92.80078;940.4914;;;;
2023/07/13 09:25:45;;;;;;;3.6;2.4;;;;;;;17.56;93.8457;940.4978;;;;
2023/07/13 09:28:10;;;;;;;3.9;2.6;;;;;;;17.6;93.55371;940.4255;;;;
2023/07/13 09:30:36;;;;;;;3.8;2.6;;;;;;;17.55;93.62305;940.4319;;;;
2023/07/13 09:33:01;;;;;;;4.1;2.7;;;;;;;17.45;94.24023;940.4672;;;;
2023/07/13 09:35:30;;;;;;;4.5;2.6;;;;;;;17.4;93.50879;940.478;;;;
2023/07/13 09:37:55;;;;;;;4.6;2.8;;;;;;;17.46;95.08887;940.4099;;;;
2023/07/13 09:40:25;;;;;;;4.2;2.9;;;;;;;17.57;94.45117;940.4397;;;;
2023/07/13 09:42:50;;;;;;;4.1;3;;;;;;;17.56;94.69434;940.402;;;;
2023/07/13 09:45:22;;;;;;;4.8;3.1;;;;;;;17.58;94.80273;940.3887;;;;
2023/07/13 09:47:52;;;;;;;3.3;2.9;;;;;;;17.59;93.57324;940.4016;;;;
2023/07/13 09:50:18;;;;;;;6.6;3.3;;;;;;;17.68;94.91504;940.4791;;;;
2023/07/13 09:52:46;;;;;;;3.8;2.8;;;;;;;17.57;92.86133;940.4678;;;;
2023/07/13 09:55:21;;;;;;;5;3.3;;;;;;;17.48;94.12012;940.4328;;;;
2023/07/13 09:57:51;;;;;;;5.4;3.3;;;;;;;17.7;95.51074;940.3983;;;;
2023/07/13 10:00:20;;;;;;;5.1;3.3;;;;;;;17.84;94.72949;940.4005;;;;
2023/07/13 10:02:45;;;;;;;4.9;3.2;;;;;;;18.05;91.67285;940.3756;;;;
2023/07/13 10:05:10;;;;;;;6;3.3;;;;;;;18.24;91.13184;940.3471;;;;
2023/07/13 10:07:45;;;;;;;4.7;3.1;;;;;;;18.32;90.16211;940.378;;;;
2023/07/13 10:10:20;;;;;;;4.5;2.9;;;;;;;18.51;90.10645;940.4589;;;;
2023/07/13 10:12:51;;;;;;;3.4;2.7;;;;;;;18.74;88.20898;940.4739;;;;
2023/07/13 10:15:18;;;;;;;5.1;3.3;;;;;;;18.97;86.79004;940.5303;;;;
2023/07/13 10:17:47;;;;;;;3;2.3;;;;;;;19.24;88.32227;940.6411;;;;
2023/07/13 10:20:20;;;;;;;3.7;2.1;;;;;;;19.57;85.56836;940.7639;;;;
2023/07/13 10:22:45;;;;;;;5.1;2.7;;;;;;;19.88;81.06738;940.7944;;;;
2023/07/13 10:25:14;;;;;;;2.2;1.9;;;;;;;20.22;79.69238;940.6824;;;;
2023/07/13 10:27:40;;;;;;;3.2;2.2;;;;;;;20.38;82.16406;940.6577;;;;
2023/07/13 10:30:04;;;;;;;2.7;2.3;;;;;;;20.81;80.46582;940.6308;;;;
2023/07/13 10:32:29;;;;;;;3.2;2.2;;;;;;;21.21;75.63672;940.6561;;;;
2023/07/13 10:35:00;;;;;;;3.1;2;;;;;;;21.58;73.45117;940.6548;;;;
2023/07/13 10:37:22;;;;;;;2.3;1.8;;;;;;;21.58;75.23242;940.8087;;;;
2023/07/13 10:39:47;;;;;;;3.9;2;;;;;;;21.72;76.34375;940.8292;;;;
2023/07/13 10:42:12;;;;;;;2.7;2;;;;;;;21.76;75.27344;940.8078;;;;
2023/07/13 10:44:38;;;;;;;3.3;2;;;;;;;22.01;78.20117;940.815;;;;
2023/07/13 10:47:07;;;;;;;2.6;2;;;;;;;22.59;75.74316;940.8206;;;;
2023/07/13 10:49:31;;;;;;;5.9;2.2;;;;;;;23.15;70.03516;940.762;;;;
2023/07/13 10:51:59;;;;;;;2;1.8;;;;;;;23.29;72.93652;940.7974;;;;
2023/07/13 10:54:24;;;;;;;3.9;2.1;;;;;;;23.11;74.11719;940.7455;;;;
2023/07/13 10:56:49;;;;;;;3;2.2;;;;;;;22.94;72.11523;940.6814;;;;
2023/07/13 10:59:16;;;;;;;2.7;2.2;;;;;;;22.66;67.96191;940.7439;;;;
2023/07/13 11:01:44;;;;;;;3.1;1.9;;;;;;;22.81;71.30664;940.7008;;;;
2023/07/13 11:04:20;;;;;;;3.2;2;;;;;;;22.85;70.2334;940.7421;;;;
2023/07/13 11:06:44;;;;;;;3.1;1.9;;;;;;;22.51;71.93945;940.6641;;;;
2023/07/13 11:09:07;;;;;;;2.4;2;;;;;;;22.85;71.12695;940.6649;;;;
2023/07/13 11:11:32;;;;;;;3.2;2;;;;;;;23.04;71.9668;940.5922;;;;
2023/07/13 11:14:04;;;;;;;3.7;2.1;;;;;;;22.88;73.71484;940.4991;;;;
2023/07/13 11:16:28;;;;;;;2.1;1.9;;;;;;;23.37;71.33887;940.5187;;;;
2023/07/13 11:18:56;;;;;;;2.2;1.8;;;;;;;23.26;71.65039;940.5268;;;;
2023/07/13 11:21:30;;;;;;;2.9;1.9;;;;;;;23.63;68.33301;940.52;;;;
2023/07/13 11:23:57;;;;;;;3.1;1.9;;;;;;;23.56;69.09961;940.4455;;;;
2023/07/13 11:26:22;;;;;;;2.6;1.7;;;;;;;23.59;65.9043;940.4219;;;;
2023/07/13 11:28:50;;;;;;;2.8;1.8;;;;;;;23.8;64.96973;940.3345;;;;
2023/07/13 11:31:16;;;;;;;2;1.8;;;;;;;23.8;65.94629;940.329;;;;
2023/07/13 11:33:42;;;;;;;2;1.7;;;;;;;23.85;64.47168;940.2296;;;;
2023/07/13 11:36:12;;;;;;;3.9;1.9;;;;;;;23.93;66.07227;940.2672;;;;
2023/07/13 11:38:42;;;;;;;2.4;1.8;;;;;;;23.82;65.30176;940.1688;;;;
2023/07/13 11:41:11;;;;;;;2.9;2;;;;;;;24.09;64.56445;940.1741;;;;
2023/07/13 11:43:36;;;;;;;3.6;2.1;;;;;;;24.41;63.57422;940.2;;;;
2023/07/13 11:46:02;;;;;;;2.4;1.7;;;;;;;24.09;67.0625;940.1625;;;;
2023/07/13 11:48:32;;;;;;;2.8;1.7;;;;;;;24.16;62.08984;940.195;;;;
2023/07/13 11:50:58;;;;;;;2.3;1.7;;;;;;;24.44;59.83105;940.1536;;;;
2023/07/13 11:53:23;;;;;;;1.9;1.5;;;;;;;23.94;62.23535;940.1122;;;;
2023/07/13 11:55:52;;;;;;;2.1;1.3;;;;;;;24.19;61.91699;940.1401;;;;
2023/07/13 11:58:18;;;;;;;1.8;1.6;;;;;;;23.32;67.80371;940.082;;;;
2023/07/13 12:00:43;;;;;;;2.4;1.3;;;;;;;22.96;64.33203;940.0861;;;;
2023/07/13 12:03:11;;;;;;;3.4;1.6;;;;;;;23.05;65.73047;940.1172;;;;
2023/07/13 12:05:38;;;;;;;2.4;1.5;;;;;;;22.39;61.79785;940.1036;;;;
2023/07/13 12:08:04;;;;;;;2.3;1.7;;;;;;;22.05;66.66016;940.0991;;;;
2023/07/13 12:10:32;;;;;;;1.5;1.4;;;;;;;22.43;66.77637;940.0485;;;;
2023/07/13 12:12:57;;;;;;;8.2;1.8;;;;;;;22.03;69.78613;940.038;;;;
2023/07/13 12:15:23;;;;;;;2.7;1.5;;;;;;;22.38;67.22656;940.088;;;;
2023/07/13 12:17:49;;;;;;;3.3;1.5;;;;;;;22.57;66.17578;940.0502;;;;
2023/07/13 12:20:20;;;;;;;2.6;1.4;;;;;;;22.81;64.33203;940.0432;;;;
2023/07/13 12:22:49;;;;;;;3.3;1.5;;;;;;;23.15;62.4209;940.0714;;;;
2023/07/13 12:25:14;;;;;;;4;1.5;;;;;;;23.31;60.5957;940.0637;;;;
2023/07/13 12:27:43;;;;;;;1.8;1.5;;;;;;;23.25;60.92871;940.0428;;;;
2023/07/13 12:30:14;;;;;;;3.5;1.6;;;;;;;23.49;62.12598;939.988;;;;
2023/07/13 12:32:39;;;;;;;4.5;1.9;;;;;;;23.72;63.44043;940.0075;;;;
2023/07/13 12:35:04;;;;;;;3.3;1.5;;;;;;;23.13;60.30273;939.921;;;;
2023/07/13 12:37:34;;;;;;;3;1.5;;;;;;;22.56;63.4502;939.9563;;;;
2023/07/13 12:40:07;;;;;;;3.9;1.9;;;;;;;22.5;65.21582;940.1092;;;;
2023/07/13 12:42:31;;;;;;;3.8;1.7;;;;;;;22.49;65.31836;940.0488;;;;
2023/07/13 12:45:03;;;;;;;1.7;1.4;;;;;;;22.43;64.76953;940.0891;;;;
2023/07/13 12:47:28;;;;;;;2.3;1.8;;;;;;;22.11;65.39355;940.0703;;;;
2023/07/13 12:49:56;;;;;;;2.9;1.9;;;;;;;22.02;66.05859;940.0225;;;;
2023/07/13 12:52:22;;;;;;;3.1;2;;;;;;;21.92;67.47363;940.0767;;;;
2023/07/13 12:54:47;;;;;;;2.6;1.7;;;;;;;21.86;68.33105;940.1345;;;;
2023/07/13 12:57:12;;;;;;;3.5;1.7;;;;;;;21.71;69.19824;940.1484;;;;
2023/07/13 12:59:41;;;;;;;3;2;;;;;;;21.47;68.62207;940.1595;;;;
2023/07/13 13:02:05;;;;;;;3;1.6;;;;;;;21.15;71.70703;940.1308;;;;
2023/07/13 13:04:30;;;;;;;2.5;1.8;;;;;;;20.95;72.59961;940.1814;;;;
2023/07/13 13:06:57;;;;;;;2.2;1.7;;;;;;;20.63;75.45605;940.1702;;;;
2023/07/13 13:09:23;;;;;;;3.7;1.7;;;;;;;20.64;75.78613;940.2791;;;;
2023/07/13 13:11:48;;;;;;;4.8;2;;;;;;;20.47;79.30566;940.2332;;;;
2023/07/13 13:14:17;;;;;;;4.5;2.2;;;;;;;20.38;79.39648;940.2428;;;;
2023/07/13 13:16:43;;;;;;;4.3;2.1;;;;;;;20.37;80.53809;940.2001;;;;
2023/07/13 13:19:10;;;;;;;2.8;1.8;;;;;;;20.6;80.52148;940.1156;;;;
2023/07/13 13:21:35;;;;;;;3.1;2.1;;;;;;;20.6;79.85645;940.1017;;;;
2023/07/13 13:24:00;;;;;;;2.5;1.8;;;;;;;20.73;78.75684;940.1465;;;;
2023/07/13 13:26:30;;;;;;;3.4;2;;;;;;;20.78;77.63086;940.184;;;;
2023/07/13 13:28:54;;;;;;;5;2;;;;;;;21.07;77.24023;940.1765;;;;
2023/07/13 13:31:19;;;;;;;2.7;1.9;;;;;;;21.36;77.03223;940.139;;;;
2023/07/13 13:33:47;;;;;;;3.4;2.1;;;;;;;21.35;77.94336;940.1489;;;;
2023/07/13 13:36:11;;;;;;;2.2;1.6;;;;;;;21.35;77.75586;940.1044;;;;
2023/07/13 13:38:39;;;;;;;2.8;1.8;;;;;;;21.34;75.64648;940.0449;;;;
2023/07/13 13:41:04;;;;;;;4;1.9;;;;;;;21.37;76.78613;940.108;;;;
2023/07/13 13:43:31;;;;;;;2.8;1.8;;;;;;;21.29;76.39941;940.1167;;;;
2023/07/13 13:45:56;;;;;;;2.8;1.8;;;;;;;21.24;79.10547;940.1545;;;;
2023/07/13 13:48:30;;;;;;;3.3;2;;;;;;;21.25;78.89648;940.1625;;;;
2023/07/13 13:50:50;;;;;;;3.1;1.9;;;;;;;21.16;77.54688;940.1578;;;;
2023/07/13 13:53:15;;;;;;;4.5;2.1;;;;;;;21.13;78.99121;940.2349;;;;
2023/07/13 13:55:41;;;;;;;2.8;2;;;;;;;21.05;81.83203;940.2955;;;;
2023/07/13 13:58:06;;;;;;;5.7;2.2;;;;;;;20.87;83.24805;940.3;;;;
2023/07/13 14:00:31;;;;;;;3.1;2.1;;;;;;;20.69;83.56543;940.2205;;;;
2023/07/13 14:02:59;;;;;;;3.7;2;;;;;;;20.74;82.16113;940.2473;;;;
2023/07/13 14:05:25;;;;;;;3.2;2;;;;;;;21.03;80.7627;940.1178;;;;
2023/07/13 14:07:49;;;;;;;3;2.1;;;;;;;21.38;79.38867;940.1407;;;;
2023/07/13 14:10:21;;;;;;;4;1.9;;;;;;;21.41;81.96777;940.1795;;;;
2023/07/13 14:12:47;;;;;;;2.6;1.9;;;;;;;21.66;78.40723;940.1372;;;;
2023/07/13 14:15:18;;;;;;;4.6;2.1;;;;;;;21.9;77.24121;940.1973;;;;
2023/07/13 14:17:49;;;;;;;3.6;1.9;;;;;;;22.09;75.36523;940.1172;;;;
2023/07/13 14:20:19;;;;;;;4.5;2;;;;;;;22.09;80.33594;940.1384;;;;
2023/07/13 14:22:50;;;;;;;3.6;1.9;;;;;;;21.85;80.33984;940.1785;;;;
2023/07/13 14:25:19;;;;;;;3.1;1.6;;;;;;;21.69;79.04395;940.1785;;;;
2023/07/13 14:27:44;;;;;;;2.2;1.7;;;;;;;21.59;80.23242;940.2225;;;;
2023/07/13 14:30:15;;;;;;;5;1.8;;;;;;;21.44;81.22363;940.2245;;;;
2023/07/13 14:32:44;;;;;;;2.6;1.9;;;;;;;21.45;80.7334;940.2349;;;;
2023/07/13 14:35:09;;;;;;;3.1;1.9;;;;;;;21.35;80.15332;940.2544;;;;
2023/07/13 14:37:39;;;;;;;4;2.1;;;;;;;21.11;82.46387;940.3066;;;;
2023/07/13 14:40:04;;;;;;;3.7;2;;;;;;;21.11;82.56738;940.2597;;;;
2023/07/13 14:42:32;;;;;;;3.8;2.1;;;;;;;21.09;82.18945;940.2748;;;;
2023/07/13 14:44:57;;;;;;;2.4;1.9;;;;;;;21.1;83.55957;940.2997;;;;
2023/07/13 14:47:25;;;;;;;2.6;2.1;;;;;;;21.16;83.38281;940.3013;;;;
2023/07/13 14:49:50;;;;;;;4.7;2.3;;;;;;;21.08;83.08887;940.3318;;;;
2023/07/13 14:52:16;;;;;;;2.8;2;;;;;;;21.07;81.36719;940.3159;;;;
2023/07/13 14:54:43;;;;;;;3.1;2;;;;;;;21.11;80.46191;940.3108;;;;